Time;durP1;ratioP1;P1;durP2;ratioP2;P2;SDS_P1;SDS_P2;PMS_P1;PMS_P2;Temp;Humidity;BMP_temperature;BMP_pressure;BME280_temperature;BME280_humidity;BME280_pressure;Samples;Min_cycle;Max_cycle;Signal;HPM_P1;HPM_P2
2022/11/17 00:00:07;;;;;;;;;4.75;1.50;;;;;;;;5075244;28;8846;-89
2022/11/17 00:02:35;;;;;;;;;5.00;2.00;;;;;;;;5081116;28;8955;-87
2022/11/17 00:05:04;;;;;;;;;1.75;1.50;;;;;;;;5096787;28;8965;-87
2022/11/17 00:07:33;;;;;;;;;4.75;1.00;;;;;;;;5093151;28;8860;-88
2022/11/17 00:10:00;;;;;;;;;1.75;1.75;;;;;;;;5104054;28;8935;-88
2022/11/17 00:15:14;;;;;;;;;5.00;2.00;;;;;;;;5075251;28;8854;-88
2022/11/17 00:17:42;;;;;;;;;3.00;2.00;;;;;;;;5094264;28;8816;-88
2022/11/17 00:22:56;;;;;;;;;6.00;1.25;;;;;;;;5091787;28;8826;-88
2022/11/17 00:25:23;;;;;;;;;2.00;2.00;;;;;;;;5090640;28;8844;-89
2022/11/17 00:27:51;;;;;;;;;4.25;2.00;;;;;;;;5085719;28;8831;-87
2022/11/17 00:35:58;;;;;;;;;2.50;0.50;;;;;;;;5041074;28;8861;-88
2022/11/17 00:38:25;;;;;;;;;3.00;2.00;;;;;;;;5089071;28;8965;-87
2022/11/17 00:40:53;;;;;;;;;9.75;5.25;;;;;;;;5090092;28;8869;-86
2022/11/17 00:43:21;;;;;;;;;5.25;3.75;;;;;;;;5089267;28;8850;-87
2022/11/17 00:45:50;;;;;;;;;4.50;2.50;;;;;;;;5070085;28;8885;-87
2022/11/17 00:48:17;;;;;;;;;3.75;2.00;;;;;;;;5087533;28;8834;-86
2022/11/17 00:50:45;;;;;;;;;2.00;2.00;;;;;;;;5088355;28;8843;-87
2022/11/17 00:53:13;;;;;;;;;6.00;2.50;;;;;;;;5070536;28;8997;-89
2022/11/17 00:55:40;;;;;;;;;3.50;2.00;;;;;;;;5069736;28;8900;-86
2022/11/17 00:58:08;;;;;;;;;3.25;1.75;;;;;;;;5089173;28;8869;-88
2022/11/17 01:00:36;;;;;;;;;5.00;3.00;;;;;;;;5068577;28;8843;-87
2022/11/17 01:03:05;;;;;;;;;5.00;2.33;;;;;;;;5086615;28;8846;-87
2022/11/17 01:05:35;;;;;;;;;4.75;4.00;;;;;;;;5068558;28;8830;-87
2022/11/17 01:08:03;;;;;;;;;5.50;2.75;;;;;;;;5068839;28;8815;-86
2022/11/17 01:10:31;;;;;;;;;2.00;2.00;;;;;;;;5088818;28;8871;-88
2022/11/17 01:12:58;;;;;;;;;4.00;3.00;;;;;;;;5087236;28;8882;-86
2022/11/17 01:15:26;;;;;;;;;4.50;3.50;;;;;;;;5092102;28;8859;-88
2022/11/17 01:17:53;;;;;;;;;3.75;3.00;;;;;;;;5092414;28;8839;-88
2022/11/17 01:20:22;;;;;;;;;5.00;2.00;;;;;;;;5089705;28;8838;-86
2022/11/17 01:22:50;;;;;;;;;4.50;1.75;;;;;;;;5072323;28;8842;-86
2022/11/17 01:25:17;;;;;;;;;4.75;1.75;;;;;;;;5078339;28;8819;-86
2022/11/17 01:27:48;;;;;;;;;2.75;1.25;;;;;;;;5074569;28;8860;-89
2022/11/17 01:30:17;;;;;;;;;4.25;2.25;;;;;;;;5090739;28;9002;-89
2022/11/17 01:32:44;;;;;;;;;6.50;3.00;;;;;;;;5073132;28;8839;-87
2022/11/17 01:35:12;;;;;;;;;3.50;2.25;;;;;;;;5087950;28;8840;-87
2022/11/17 01:37:41;;;;;;;;;3.25;1.75;;;;;;;;5087545;28;8892;-88
2022/11/17 01:40:11;;;;;;;;;0.00;0.00;;;;;;;;5087095;28;8853;-87
2022/11/17 01:42:39;;;;;;;;;1.00;1.00;;;;;;;;5087626;28;9658;-85
2022/11/17 01:45:18;;;;;;;;;0.25;0.25;;;;;;;;5054864;28;8842;-87
2022/11/17 01:47:50;;;;;;;;;3.00;1.75;;;;;;;;5089272;28;8841;-85
2022/11/17 01:50:26;;;;;;;;;4.25;2.00;;;;;;;;5086614;28;9639;-85
2022/11/17 01:52:58;;;;;;;;;3.00;3.00;;;;;;;;5085965;28;8875;-84
2022/11/17 01:55:28;;;;;;;;;0.50;0.50;;;;;;;;5090173;28;8842;-84
2022/11/17 01:58:00;;;;;;;;;0.75;0.75;;;;;;;;5067222;28;8842;-84
2022/11/17 02:00:28;;;;;;;;;2.50;0.00;;;;;;;;5085787;28;8888;-82
2022/11/17 02:02:55;;;;;;;;;1.00;0.00;;;;;;;;5085928;28;8851;-84
2022/11/17 02:05:33;;;;;;;;;0.00;0.00;;;;;;;;5069477;28;8858;-85
2022/11/17 02:08:06;;;;;;;;;1.00;0.00;;;;;;;;5069380;28;8871;-84
2022/11/17 02:10:35;;;;;;;;;0.75;0.00;;;;;;;;5088820;28;8885;-85
2022/11/17 02:13:03;;;;;;;;;0.00;0.00;;;;;;;;5091164;28;8830;-84
2022/11/17 02:15:32;;;;;;;;;0.50;0.00;;;;;;;;5072086;28;8959;-85
2022/11/17 02:18:00;;;;;;;;;0.00;0.00;;;;;;;;5068693;28;8872;-85
2022/11/17 02:20:45;;;;;;;;;0.00;0.00;;;;;;;;5072369;28;8870;-85
2022/11/17 02:23:45;;;;;;;;;0.00;0.00;;;;;;;;5087344;28;8928;-86
2022/11/17 02:26:46;;;;;;;;;0.00;0.00;;;;;;;;5085042;28;8935;-85
2022/11/17 02:29:19;;;;;;;;;0.00;0.00;;;;;;;;5054895;28;8997;-86
2022/11/17 02:31:57;;;;;;;;;1.00;0.00;;;;;;;;5088012;28;8948;-85
2022/11/17 02:34:31;;;;;;;;;0.00;0.00;;;;;;;;5087291;28;8936;-87
2022/11/17 02:37:03;;;;;;;;;0.00;0.00;;;;;;;;5089289;28;8838;-85
2022/11/17 02:39:36;;;;;;;;;0.00;0.00;;;;;;;;5089890;28;8982;-85
2022/11/17 02:42:08;;;;;;;;;0.00;0.00;;;;;;;;5083611;28;8961;-84
2022/11/17 02:44:42;;;;;;;;;0.00;0.00;;;;;;;;5087009;28;8846;-85
2022/11/17 02:47:13;;;;;;;;;0.00;0.00;;;;;;;;5087555;28;8834;-85
2022/11/17 02:49:43;;;;;;;;;1.00;0.00;;;;;;;;5086822;28;9754;-85
2022/11/17 02:52:10;;;;;;;;;0.00;0.00;;;;;;;;5087379;28;8927;-84
2022/11/17 02:54:38;;;;;;;;;0.00;0.00;;;;;;;;5073362;28;8957;-85
2022/11/17 02:57:06;;;;;;;;;2.00;0.00;;;;;;;;5086199;28;8958;-85
2022/11/17 02:59:39;;;;;;;;;0.00;0.00;;;;;;;;5054263;28;9068;-85
2022/11/17 03:02:29;;;;;;;;;0.50;0.00;;;;;;;;5092140;28;8969;-85
2022/11/17 03:05:12;;;;;;;;;0.00;0.00;;;;;;;;5087386;28;8847;-84
2022/11/17 03:07:51;;;;;;;;;0.00;0.00;;;;;;;;5088410;28;8930;-85
2022/11/17 03:10:22;;;;;;;;;0.00;0.00;;;;;;;;5085621;28;9020;-85
2022/11/17 03:12:54;;;;;;;;;0.00;0.00;;;;;;;;5069734;28;8973;-86
2022/11/17 03:15:29;;;;;;;;;0.00;0.00;;;;;;;;5089271;28;8943;-85
2022/11/17 03:18:04;;;;;;;;;0.00;0.00;;;;;;;;5085823;28;8839;-86
2022/11/17 03:20:40;;;;;;;;;0.00;0.00;;;;;;;;5084093;28;9021;-85
2022/11/17 03:23:11;;;;;;;;;0.00;0.00;;;;;;;;5083777;28;8818;-86
2022/11/17 03:25:39;;;;;;;;;0.00;0.00;;;;;;;;5088305;28;8879;-86
2022/11/17 03:28:08;;;;;;;;;0.00;0.00;;;;;;;;5085954;28;9009;-86
2022/11/17 03:30:41;;;;;;;;;0.00;0.00;;;;;;;;5087224;28;9071;-86
2022/11/17 03:33:14;;;;;;;;;0.00;0.00;;;;;;;;5087071;28;8943;-85
2022/11/17 03:35:46;;;;;;;;;0.00;0.00;;;;;;;;5088120;28;8847;-86
2022/11/17 03:38:15;;;;;;;;;0.00;0.00;;;;;;;;5069680;28;8793;-86
2022/11/17 03:40:46;;;;;;;;;0.00;0.00;;;;;;;;5085564;28;8943;-86
2022/11/17 03:43:16;;;;;;;;;0.00;0.00;;;;;;;;5088587;28;8854;-87
2022/11/17 03:45:48;;;;;;;;;0.75;0.00;;;;;;;;5086419;28;8925;-85
2022/11/17 03:48:20;;;;;;;;;0.00;0.00;;;;;;;;5085585;28;8843;-86
2022/11/17 03:50:53;;;;;;;;;1.00;0.00;;;;;;;;5087043;28;8856;-84
2022/11/17 03:53:22;;;;;;;;;0.00;0.00;;;;;;;;5092747;28;8978;-84
2022/11/17 03:55:56;;;;;;;;;0.00;0.00;;;;;;;;5056590;28;8987;-85
2022/11/17 03:58:27;;;;;;;;;0.00;0.00;;;;;;;;5070515;28;8897;-85
2022/11/17 04:00:59;;;;;;;;;0.50;0.00;;;;;;;;5084824;28;8914;-84
2022/11/17 04:03:31;;;;;;;;;0.00;0.00;;;;;;;;5087465;28;8830;-85
2022/11/17 04:05:58;;;;;;;;;0.00;0.00;;;;;;;;5071404;28;8827;-85
2022/11/17 04:08:29;;;;;;;;;0.00;0.00;;;;;;;;5071102;28;8979;-86
2022/11/17 04:16:28;;;;;;;;;0.00;0.00;;;;;;;;5088004;28;8907;-85
2022/11/17 04:18:55;;;;;;;;;0.00;0.00;;;;;;;;5089653;28;8827;-85
2022/11/17 04:21:23;;;;;;;;;1.00;0.00;;;;;;;;5089431;28;8954;-85
2022/11/17 04:23:50;;;;;;;;;0.00;0.00;;;;;;;;5069898;28;9777;-86
2022/11/17 04:29:03;;;;;;;;;0.00;0.00;;;;;;;;5089575;28;8973;-85
2022/11/17 04:31:32;;;;;;;;;0.00;0.00;;;;;;;;5073032;28;8883;-85
2022/11/17 04:34:02;;;;;;;;;1.00;0.00;;;;;;;;5070482;28;9065;-85
2022/11/17 04:36:31;;;;;;;;;0.00;0.00;;;;;;;;5071717;28;9138;-84
2022/11/17 04:38:59;;;;;;;;;0.00;0.00;;;;;;;;5088795;28;9082;-84
2022/11/17 04:44:16;;;;;;;;;0.00;0.00;;;;;;;;5085599;28;9137;-86
2022/11/17 04:46:48;;;;;;;;;0.00;0.00;;;;;;;;5067927;28;9250;-86
2022/11/17 04:49:17;;;;;;;;;0.00;0.00;;;;;;;;5088102;28;9305;-86
2022/11/17 04:51:48;;;;;;;;;0.00;0.00;;;;;;;;5088224;28;9237;-85
2022/11/17 04:54:17;;;;;;;;;0.33;0.00;;;;;;;;5086217;28;9332;-85
2022/11/17 04:56:49;;;;;;;;;0.00;0.00;;;;;;;;5069844;28;9334;-86
2022/11/17 04:59:17;;;;;;;;;0.00;0.00;;;;;;;;5073312;28;9146;-85
2022/11/17 05:01:47;;;;;;;;;0.00;0.00;;;;;;;;5082556;28;9269;-86
2022/11/17 05:04:54;;;;;;;;;0.00;0.00;;;;;;;;5084508;28;9199;-85
2022/11/17 05:07:05;;;;;;;;;0.00;0.00;;;;;;;;5083978;28;9247;-85
2022/11/17 05:09:33;;;;;;;;;0.67;0.00;;;;;;;;5085356;28;9411;-86
2022/11/17 05:14:48;;;;;;;;;0.00;0.00;;;;;;;;5072206;28;9890;-86
2022/11/17 05:17:17;;;;;;;;;0.00;0.00;;;;;;;;5066730;28;9181;-86
2022/11/17 05:19:48;;;;;;;;;0.00;0.00;;;;;;;;5073624;28;9234;-85
2022/11/17 05:25:02;;;;;;;;;0.00;0.00;;;;;;;;5070507;28;9280;-86
2022/11/17 05:27:30;;;;;;;;;0.00;0.00;;;;;;;;5090560;28;9184;-86
2022/11/17 05:29:58;;;;;;;;;0.00;0.00;;;;;;;;5074635;28;9252;-86
2022/11/17 05:32:27;;;;;;;;;0.00;0.00;;;;;;;;5088518;28;9439;-85
2022/11/17 05:34:54;;;;;;;;;0.00;0.00;;;;;;;;5088432;28;9212;-86
2022/11/17 05:37:22;;;;;;;;;0.00;0.00;;;;;;;;5073074;28;9169;-85
2022/11/17 05:39:50;;;;;;;;;0.00;0.00;;;;;;;;5089822;28;9142;-84
2022/11/17 05:42:17;;;;;;;;;1.00;0.00;;;;;;;;5074811;28;9169;-87
2022/11/17 05:44:47;;;;;;;;;0.00;0.00;;;;;;;;5073833;28;9192;-85
2022/11/17 05:47:14;;;;;;;;;0.00;0.00;;;;;;;;5093221;28;9260;-87
2022/11/17 05:49:43;;;;;;;;;0.00;0.00;;;;;;;;5091835;28;9281;-86
2022/11/17 05:52:11;;;;;;;;;0.00;0.00;;;;;;;;5092027;28;9246;-87
2022/11/17 05:54:38;;;;;;;;;0.33;0.00;;;;;;;;5072487;28;10062;-87
2022/11/17 05:57:11;;;;;;;;;0.00;0.00;;;;;;;;5071148;28;9297;-87
2022/11/17 05:59:43;;;;;;;;;0.00;0.00;;;;;;;;5089370;28;9181;-87
2022/11/17 06:02:14;;;;;;;;;0.00;0.00;;;;;;;;5089934;28;9340;-86
2022/11/17 06:04:46;;;;;;;;;0.00;0.00;;;;;;;;5071079;28;9339;-87
2022/11/17 06:07:14;;;;;;;;;1.00;0.00;;;;;;;;5073180;28;9344;-87
2022/11/17 06:09:43;;;;;;;;;0.00;0.00;;;;;;;;5093252;28;9096;-88
2022/11/17 06:12:12;;;;;;;;;0.00;0.00;;;;;;;;5074158;28;9163;-87
2022/11/17 06:14:40;;;;;;;;;0.00;0.00;;;;;;;;5072913;28;9250;-88
2022/11/17 06:17:12;;;;;;;;;0.00;0.00;;;;;;;;5069393;28;9993;-88
2022/11/17 06:19:42;;;;;;;;;0.00;0.00;;;;;;;;5059474;28;9228;-87
2022/11/17 06:22:11;;;;;;;;;0.00;0.00;;;;;;;;5088786;28;9458;-87
2022/11/17 06:24:40;;;;;;;;;0.00;0.00;;;;;;;;5093132;28;9384;-86
2022/11/17 06:27:08;;;;;;;;;0.33;0.00;;;;;;;;5089396;28;9442;-87
2022/11/17 06:29:36;;;;;;;;;0.00;0.00;;;;;;;;5090768;28;9256;-86
2022/11/17 06:32:04;;;;;;;;;1.00;0.00;;;;;;;;5070059;28;9424;-87
2022/11/17 06:34:33;;;;;;;;;0.00;0.00;;;;;;;;5091009;28;9339;-86
2022/11/17 06:37:00;;;;;;;;;1.33;0.00;;;;;;;;5073813;28;9381;-85
2022/11/17 06:39:29;;;;;;;;;0.00;0.00;;;;;;;;5087363;28;9409;-85
2022/11/17 06:42:03;;;;;;;;;1.00;0.00;;;;;;;;5086515;28;9390;-85
2022/11/17 06:44:31;;;;;;;;;0.00;0.00;;;;;;;;5088354;28;9236;-87
2022/11/17 06:47:01;;;;;;;;;0.67;0.00;;;;;;;;5092245;28;9294;-88
2022/11/17 06:49:29;;;;;;;;;0.00;0.00;;;;;;;;5088079;28;9542;-88
2022/11/17 06:51:56;;;;;;;;;0.00;0.00;;;;;;;;5090486;28;9490;-89
2022/11/17 06:54:24;;;;;;;;;0.00;0.00;;;;;;;;5088952;28;9325;-88
2022/11/17 06:56:54;;;;;;;;;0.00;0.00;;;;;;;;5068567;28;9488;-87
2022/11/17 06:59:21;;;;;;;;;0.00;0.00;;;;;;;;5088227;28;9362;-88
2022/11/17 07:01:51;;;;;;;;;0.00;0.00;;;;;;;;5072516;28;9256;-88
2022/11/17 07:04:18;;;;;;;;;0.00;0.00;;;;;;;;5090776;28;9224;-89
2022/11/17 07:06:48;;;;;;;;;0.00;0.00;;;;;;;;5073860;28;9377;-89
2022/11/17 07:09:18;;;;;;;;;0.00;0.00;;;;;;;;5088858;28;9300;-89
2022/11/17 07:11:49;;;;;;;;;0.00;0.00;;;;;;;;5073310;28;9385;-88
2022/11/17 07:14:19;;;;;;;;;0.00;0.00;;;;;;;;5086110;28;9452;-88
2022/11/17 07:16:47;;;;;;;;;0.00;0.00;;;;;;;;5071132;28;9437;-87
2022/11/17 07:19:14;;;;;;;;;0.00;0.00;;;;;;;;5069949;28;9510;-88
2022/11/17 07:21:42;;;;;;;;;0.25;0.00;;;;;;;;5088051;28;9456;-87
2022/11/17 07:24:09;;;;;;;;;0.00;0.00;;;;;;;;5070420;28;9386;-88
2022/11/17 07:26:37;;;;;;;;;0.00;0.00;;;;;;;;5084050;28;9405;-87
2022/11/17 07:29:05;;;;;;;;;0.00;0.00;;;;;;;;5068285;28;9496;-87
2022/11/17 07:31:37;;;;;;;;;0.00;0.00;;;;;;;;5056423;28;9442;-90
2022/11/17 07:34:06;;;;;;;;;0.00;0.00;;;;;;;;5087180;28;9304;-89
2022/11/17 07:36:34;;;;;;;;;0.00;0.00;;;;;;;;5071302;28;9446;-90
2022/11/17 07:39:07;;;;;;;;;0.00;0.00;;;;;;;;5087835;28;9400;-90
2022/11/17 07:41:38;;;;;;;;;0.00;0.00;;;;;;;;5089379;28;9442;-90
2022/11/17 07:44:08;;;;;;;;;0.00;0.00;;;;;;;;5091968;28;9502;-87
2022/11/17 07:46:38;;;;;;;;;0.00;0.00;;;;;;;;5075364;28;9541;-85
2022/11/17 07:49:05;;;;;;;;;0.00;0.00;;;;;;;;5085389;28;9937;-83
2022/11/17 07:51:33;;;;;;;;;1.00;0.00;;;;;;;;5087381;28;10116;-86
2022/11/17 07:54:00;;;;;;;;;0.00;0.00;;;;;;;;5088086;28;9309;-87
2022/11/17 07:56:28;;;;;;;;;0.00;0.00;;;;;;;;5090482;28;9340;-73
2022/11/17 07:58:56;;;;;;;;;1.00;0.00;;;;;;;;5060005;28;9224;-74
2022/11/17 08:01:26;;;;;;;;;0.00;0.00;;;;;;;;5089596;28;9328;-79
2022/11/17 08:03:56;;;;;;;;;0.00;0.00;;;;;;;;5062849;28;9308;-75
2022/11/17 08:06:24;;;;;;;;;0.00;0.00;;;;;;;;5065354;28;9154;-74
2022/11/17 08:08:52;;;;;;;;;1.00;0.00;;;;;;;;5085827;28;9342;-76
2022/11/17 08:11:20;;;;;;;;;0.00;0.00;;;;;;;;5069727;28;9331;-76
2022/11/17 08:13:48;;;;;;;;;0.00;0.00;;;;;;;;5084268;28;9158;-76
2022/11/17 08:16:17;;;;;;;;;0.00;0.00;;;;;;;;5085962;28;9153;-75
2022/11/17 08:18:46;;;;;;;;;0.00;0.00;;;;;;;;5069982;28;9241;-74
2022/11/17 08:21:16;;;;;;;;;0.00;0.00;;;;;;;;5084581;28;9097;-75
2022/11/17 08:23:51;;;;;;;;;0.00;0.00;;;;;;;;5049429;28;9189;-77
2022/11/17 08:26:19;;;;;;;;;2.00;0.00;;;;;;;;5088047;28;9250;-79
2022/11/17 08:28:47;;;;;;;;;0.00;0.00;;;;;;;;5083775;28;9206;-81
2022/11/17 08:31:17;;;;;;;;;0.00;0.00;;;;;;;;5088272;28;9102;-76
2022/11/17 08:33:46;;;;;;;;;0.00;0.00;;;;;;;;5073907;28;9236;-77
2022/11/17 08:36:17;;;;;;;;;0.00;0.00;;;;;;;;5087311;28;9163;-74
2022/11/17 08:38:46;;;;;;;;;0.00;0.00;;;;;;;;5080441;28;9096;-75
2022/11/17 08:41:15;;;;;;;;;0.00;0.00;;;;;;;;5063594;28;9030;-75
2022/11/17 08:43:43;;;;;;;;;0.00;0.00;;;;;;;;5087423;28;9057;-78
2022/11/17 08:46:13;;;;;;;;;0.00;0.00;;;;;;;;5080863;28;9100;-74
2022/11/17 08:48:40;;;;;;;;;0.00;0.00;;;;;;;;5067224;28;9008;-74
2022/11/17 08:51:09;;;;;;;;;1.00;0.00;;;;;;;;5084319;28;8931;-74
2022/11/17 08:53:38;;;;;;;;;0.00;0.00;;;;;;;;5069299;28;9071;-74
2022/11/17 08:56:07;;;;;;;;;0.00;0.00;;;;;;;;5087878;28;8945;-75
2022/11/17 08:58:39;;;;;;;;;1.00;0.00;;;;;;;;5086972;28;8946;-75
2022/11/17 09:01:08;;;;;;;;;0.00;0.00;;;;;;;;5087782;28;9032;-74
2022/11/17 09:03:36;;;;;;;;;1.33;0.00;;;;;;;;5072406;28;8934;-75
2022/11/17 09:06:05;;;;;;;;;1.00;0.00;;;;;;;;5054373;28;9133;-75
2022/11/17 09:08:32;;;;;;;;;0.75;0.00;;;;;;;;5092597;28;8938;-74
2022/11/17 09:11:06;;;;;;;;;0.00;0.00;;;;;;;;5088038;28;8846;-74
2022/11/17 09:13:33;;;;;;;;;2.00;0.00;;;;;;;;5089472;28;8855;-75
2022/11/17 09:16:02;;;;;;;;;0.00;0.00;;;;;;;;5084718;28;8974;-74
2022/11/17 09:18:30;;;;;;;;;0.00;0.00;;;;;;;;5092741;28;8844;-73
2022/11/17 09:21:01;;;;;;;;;0.00;0.00;;;;;;;;5087066;28;8853;-75
2022/11/17 09:23:31;;;;;;;;;0.75;0.00;;;;;;;;5087769;28;9008;-75
2022/11/17 09:26:02;;;;;;;;;0.00;0.00;;;;;;;;5086275;28;8819;-75
2022/11/17 09:28:30;;;;;;;;;0.50;0.00;;;;;;;;5088196;28;8838;-76
2022/11/17 09:30:58;;;;;;;;;0.50;0.00;;;;;;;;5088497;28;8862;-75
2022/11/17 09:33:27;;;;;;;;;2.50;0.00;;;;;;;;5071527;28;10068;-76
2022/11/17 09:35:58;;;;;;;;;0.00;0.00;;;;;;;;5088896;28;8843;-77
2022/11/17 09:38:26;;;;;;;;;0.25;0.00;;;;;;;;5068767;28;8880;-76
2022/11/17 09:40:57;;;;;;;;;0.00;0.00;;;;;;;;5071710;28;9627;-77
2022/11/17 09:43:29;;;;;;;;;0.00;0.00;;;;;;;;5072776;28;8818;-75
2022/11/17 09:46:05;;;;;;;;;0.00;0.00;;;;;;;;5084375;28;8874;-76
2022/11/17 09:48:39;;;;;;;;;0.00;0.00;;;;;;;;5088460;28;8815;-74
2022/11/17 09:51:13;;;;;;;;;0.00;0.00;;;;;;;;5067064;28;8850;-76
2022/11/17 09:53:46;;;;;;;;;0.00;0.00;;;;;;;;5089138;28;8844;-75
2022/11/17 09:56:14;;;;;;;;;0.00;0.00;;;;;;;;5084803;28;8896;-76
2022/11/17 09:58:46;;;;;;;;;0.00;0.00;;;;;;;;5090578;28;8846;-78
2022/11/17 10:01:15;;;;;;;;;0.00;0.00;;;;;;;;5068482;28;9640;-77
2022/11/17 10:03:45;;;;;;;;;0.75;0.00;;;;;;;;5076961;28;8843;-75
2022/11/17 10:06:16;;;;;;;;;1.00;0.00;;;;;;;;5087286;28;8877;-79
2022/11/17 10:08:47;;;;;;;;;0.00;0.00;;;;;;;;5071998;28;9309;-80
2022/11/17 10:11:35;;;;;;;;;0.00;0.00;;;;;;;;5087780;28;8862;-78
2022/11/17 10:14:12;;;;;;;;;0.00;0.00;;;;;;;;5058570;28;8951;-80
2022/11/17 10:16:41;;;;;;;;;0.00;0.00;;;;;;;;5076968;28;8865;-80
2022/11/17 10:19:16;;;;;;;;;0.00;0.00;;;;;;;;5091968;28;8862;-85
2022/11/17 10:21:44;;;;;;;;;1.00;0.00;;;;;;;;5090488;28;8828;-75
2022/11/17 10:24:33;;;;;;;;;0.00;0.00;;;;;;;;5068112;28;8844;-83
2022/11/17 10:27:02;;;;;;;;;0.00;0.00;;;;;;;;5089994;28;8847;-86
2022/11/17 10:29:31;;;;;;;;;0.00;0.00;;;;;;;;5095538;28;8838;-84
2022/11/17 10:32:00;;;;;;;;;0.75;0.00;;;;;;;;5087383;28;8881;-76
2022/11/17 10:34:32;;;;;;;;;0.00;0.00;;;;;;;;5092302;28;8989;-77
2022/11/17 10:37:11;;;;;;;;;0.50;0.00;;;;;;;;5090293;28;8882;-81
2022/11/17 10:39:40;;;;;;;;;0.25;0.25;;;;;;;;5085776;28;8910;-79
2022/11/17 10:42:21;;;;;;;;;0.25;0.00;;;;;;;;5068904;28;8984;-81
2022/11/17 10:44:53;;;;;;;;;0.25;0.00;;;;;;;;5092531;28;8947;-80
2022/11/17 10:47:29;;;;;;;;;0.00;0.00;;;;;;;;5088927;28;8826;-80
2022/11/17 10:50:22;;;;;;;;;0.00;0.00;;;;;;;;5093733;28;8878;-80
2022/11/17 10:52:56;;;;;;;;;0.50;0.50;;;;;;;;5085552;28;8853;-81
2022/11/17 10:55:30;;;;;;;;;0.00;0.00;;;;;;;;5081989;28;8827;-81
2022/11/17 10:58:01;;;;;;;;;0.00;0.00;;;;;;;;5068189;28;8812;-76
2022/11/17 11:00:33;;;;;;;;;0.00;0.00;;;;;;;;5090470;28;8875;-78
2022/11/17 11:08:49;;;;;;;;;0.00;0.00;;;;;;;;5073631;28;9670;-77
2022/11/17 11:11:25;;;;;;;;;0.25;0.00;;;;;;;;5081686;28;8860;-87
2022/11/17 11:14:08;;;;;;;;;1.25;0.00;;;;;;;;5099826;28;8854;-82
2022/11/17 11:16:37;;;;;;;;;0.75;0.75;;;;;;;;5074005;28;8835;-82
2022/11/17 11:19:13;;;;;;;;;0.75;0.00;;;;;;;;5088016;28;8831;-81
2022/11/17 11:21:58;;;;;;;;;0.50;0.50;;;;;;;;5084615;28;8838;-85
2022/11/17 11:24:34;;;;;;;;;0.25;0.25;;;;;;;;5101878;28;8989;-84
2022/11/17 11:27:13;;;;;;;;;0.50;0.00;;;;;;;;5082304;28;8852;-84
2022/11/17 11:29:50;;;;;;;;;0.00;0.00;;;;;;;;5089088;28;8839;-84
2022/11/17 11:32:25;;;;;;;;;1.00;1.00;;;;;;;;5073150;28;8838;-86
2022/11/17 11:35:20;;;;;;;;;2.25;0.00;;;;;;;;5071772;28;8959;-86
2022/11/17 11:37:53;;;;;;;;;0.00;0.00;;;;;;;;5090675;28;8827;-87
2022/11/17 11:40:27;;;;;;;;;0.00;0.00;;;;;;;;5096211;28;8956;-83
2022/11/17 11:42:58;;;;;;;;;0.00;0.00;;;;;;;;5088572;28;8949;-85
2022/11/17 11:45:40;;;;;;;;;1.00;0.00;;;;;;;;5092900;28;8947;-86
2022/11/17 11:48:17;;;;;;;;;0.50;0.50;;;;;;;;5091991;28;8860;-85
2022/11/17 11:50:52;;;;;;;;;2.50;0.00;;;;;;;;5086748;28;8823;-84
2022/11/17 11:53:28;;;;;;;;;0.00;0.00;;;;;;;;5070476;28;8858;-82
2022/11/17 11:56:03;;;;;;;;;0.00;0.00;;;;;;;;5074152;28;8832;-84
2022/11/17 11:58:31;;;;;;;;;0.00;0.00;;;;;;;;5060477;28;9002;-83
2022/11/17 12:01:03;;;;;;;;;1.00;0.00;;;;;;;;5070534;28;8838;-81
2022/11/17 12:03:36;;;;;;;;;0.00;0.00;;;;;;;;5085171;28;8850;-81
2022/11/17 12:09:10;;;;;;;;;1.00;0.00;;;;;;;;5084564;28;8860;-81
2022/11/17 12:14:25;;;;;;;;;0.00;0.00;;;;;;;;5085123;28;8819;-78
2022/11/17 12:17:02;;;;;;;;;0.00;0.00;;;;;;;;5069180;28;8843;-77
2022/11/17 12:19:52;;;;;;;;;1.00;0.50;;;;;;;;5048579;28;8844;-82
2022/11/17 12:22:49;;;;;;;;;0.00;0.00;;;;;;;;5081061;28;8847;-78
2022/11/17 12:25:18;;;;;;;;;0.75;0.75;;;;;;;;5081803;28;8850;-78
2022/11/17 12:27:48;;;;;;;;;0.00;0.00;;;;;;;;5082848;28;8834;-79
2022/11/17 12:30:53;;;;;;;;;0.00;0.00;;;;;;;;5081881;28;8908;-78
2022/11/17 12:33:21;;;;;;;;;0.50;0.50;;;;;;;;5084050;28;8939;-78
2022/11/17 12:36:23;;;;;;;;;0.00;0.00;;;;;;;;5087026;28;8850;-79
2022/11/17 12:38:51;;;;;;;;;0.00;0.00;;;;;;;;5057710;28;8835;-78
2022/11/17 12:41:53;;;;;;;;;0.75;0.25;;;;;;;;5045676;28;8845;-78
2022/11/17 12:44:43;;;;;;;;;0.00;0.00;;;;;;;;5048915;28;8819;-78
2022/11/17 12:47:14;;;;;;;;;1.00;0.00;;;;;;;;5051144;28;8896;-78
2022/11/17 12:49:47;;;;;;;;;2.00;0.00;;;;;;;;5049848;28;8866;-82
2022/11/17 12:52:21;;;;;;;;;0.75;0.00;;;;;;;;5045268;28;9660;-77
2022/11/17 12:54:55;;;;;;;;;0.00;0.00;;;;;;;;5042988;28;8837;-77
2022/11/17 12:57:26;;;;;;;;;1.25;1.00;;;;;;;;5044569;28;8882;-75
2022/11/17 13:00:06;;;;;;;;;0.00;0.00;;;;;;;;5050033;28;8859;-75
2022/11/17 13:02:56;;;;;;;;;2.00;0.75;;;;;;;;5047490;28;8859;-75
2022/11/17 13:05:25;;;;;;;;;1.25;0.00;;;;;;;;5046406;28;9658;-77
2022/11/17 13:08:11;;;;;;;;;0.00;0.00;;;;;;;;5060753;28;8845;-77
2022/11/17 13:10:38;;;;;;;;;2.00;0.00;;;;;;;;5049639;28;9481;-77
2022/11/17 13:13:14;;;;;;;;;0.25;0.25;;;;;;;;5056800;28;8860;-77
2022/11/17 13:15:42;;;;;;;;;0.00;0.00;;;;;;;;5066817;28;8861;-76
2022/11/17 13:18:14;;;;;;;;;0.00;0.00;;;;;;;;5051360;28;8835;-77
2022/11/17 13:20:45;;;;;;;;;0.00;0.00;;;;;;;;5047100;28;8838;-74
2022/11/17 13:23:20;;;;;;;;;0.00;0.00;;;;;;;;5054469;28;8835;-75
2022/11/17 13:25:47;;;;;;;;;0.00;0.00;;;;;;;;5050062;28;8837;-75
2022/11/17 13:28:27;;;;;;;;;0.00;0.00;;;;;;;;5048162;28;8823;-73
2022/11/17 13:30:55;;;;;;;;;0.00;0.00;;;;;;;;5047426;28;8847;-75
2022/11/17 13:33:25;;;;;;;;;0.00;0.00;;;;;;;;5049751;28;8861;-77
2022/11/17 13:36:07;;;;;;;;;0.00;0.00;;;;;;;;5046843;28;8952;-77
2022/11/17 13:38:37;;;;;;;;;1.00;0.00;;;;;;;;5084847;28;8844;-77
2022/11/17 13:41:06;;;;;;;;;0.00;0.00;;;;;;;;5067921;28;8869;-75
2022/11/17 13:43:39;;;;;;;;;0.00;0.00;;;;;;;;5089370;28;8846;-77
2022/11/17 13:46:07;;;;;;;;;0.75;0.50;;;;;;;;5073686;28;8830;-78
2022/11/17 13:48:36;;;;;;;;;0.25;0.25;;;;;;;;5088255;28;8838;-78
2022/11/17 13:51:24;;;;;;;;;0.00;0.00;;;;;;;;5088697;28;8854;-75
2022/11/17 13:53:55;;;;;;;;;1.75;0.00;;;;;;;;5083616;28;8878;-75
2022/11/17 13:56:25;;;;;;;;;0.00;0.00;;;;;;;;5084058;28;8873;-75
2022/11/17 13:58:52;;;;;;;;;2.00;1.00;;;;;;;;5091911;28;8951;-76
2022/11/17 14:01:27;;;;;;;;;0.75;0.00;;;;;;;;5090713;28;8884;-78
2022/11/17 14:04:13;;;;;;;;;1.00;0.00;;;;;;;;5086096;28;8909;-76
2022/11/17 14:06:55;;;;;;;;;0.00;0.00;;;;;;;;5087026;28;8846;-75
2022/11/17 14:09:25;;;;;;;;;0.50;0.00;;;;;;;;5089417;28;9049;-75
2022/11/17 14:11:52;;;;;;;;;0.00;0.00;;;;;;;;5082503;28;8830;-75
2022/11/17 14:14:23;;;;;;;;;0.00;0.00;;;;;;;;5091137;28;8842;-76
2022/11/17 14:16:50;;;;;;;;;0.00;0.00;;;;;;;;5089033;28;9612;-75
2022/11/17 14:19:34;;;;;;;;;0.00;0.00;;;;;;;;5087325;28;8886;-76
2022/11/17 14:22:04;;;;;;;;;0.00;0.00;;;;;;;;5086637;28;8830;-78
2022/11/17 14:24:33;;;;;;;;;0.00;0.00;;;;;;;;5088057;28;9696;-75
2022/11/17 14:27:01;;;;;;;;;0.75;0.00;;;;;;;;5072311;28;9596;-76
2022/11/17 14:29:29;;;;;;;;;0.00;0.00;;;;;;;;5089159;28;8842;-75
2022/11/17 14:31:57;;;;;;;;;1.00;0.00;;;;;;;;5070559;28;8835;-76
2022/11/17 14:34:25;;;;;;;;;0.00;0.00;;;;;;;;5092758;28;8862;-76
2022/11/17 14:36:54;;;;;;;;;0.00;0.00;;;;;;;;5067074;28;9633;-75
2022/11/17 14:39:21;;;;;;;;;0.00;0.00;;;;;;;;5073878;28;8885;-76
2022/11/17 14:41:51;;;;;;;;;0.25;0.00;;;;;;;;5067263;28;8889;-76
2022/11/17 14:44:20;;;;;;;;;0.00;0.00;;;;;;;;5068340;28;8828;-78
2022/11/17 14:46:48;;;;;;;;;0.00;0.00;;;;;;;;5075793;28;8862;-79
2022/11/17 14:49:16;;;;;;;;;0.00;0.00;;;;;;;;5066915;28;8843;-76
2022/11/17 14:51:43;;;;;;;;;0.00;0.00;;;;;;;;5065407;28;8859;-78
2022/11/17 14:54:11;;;;;;;;;0.00;0.00;;;;;;;;5064868;28;9013;-77
2022/11/17 14:56:38;;;;;;;;;0.75;0.00;;;;;;;;5066698;28;8831;-77
2022/11/17 14:59:09;;;;;;;;;0.00;0.00;;;;;;;;5065607;28;8839;-74
2022/11/17 15:01:37;;;;;;;;;0.25;0.00;;;;;;;;5067001;28;8870;-75
2022/11/17 15:04:06;;;;;;;;;0.00;0.00;;;;;;;;5068235;28;8918;-75
2022/11/17 15:06:34;;;;;;;;;0.00;0.00;;;;;;;;5064732;28;8831;-75
2022/11/17 15:09:05;;;;;;;;;2.00;0.00;;;;;;;;5063500;28;8871;-74
2022/11/17 15:11:35;;;;;;;;;0.00;0.00;;;;;;;;5069322;28;8870;-75
2022/11/17 15:14:03;;;;;;;;;0.00;0.00;;;;;;;;5075605;28;8847;-77
2022/11/17 15:16:39;;;;;;;;;0.25;0.25;;;;;;;;5069892;28;8873;-79
2022/11/17 15:19:07;;;;;;;;;0.75;0.00;;;;;;;;5063489;28;8859;-79
2022/11/17 15:21:34;;;;;;;;;0.00;0.00;;;;;;;;5066745;28;8961;-74
2022/11/17 15:24:02;;;;;;;;;1.25;0.75;;;;;;;;5068296;28;8846;-73
2022/11/17 15:26:31;;;;;;;;;0.00;0.00;;;;;;;;5069089;28;8985;-78
2022/11/17 15:28:59;;;;;;;;;2.00;0.50;;;;;;;;5063631;28;8839;-77
2022/11/17 15:31:27;;;;;;;;;1.75;0.75;;;;;;;;5066352;28;8866;-78
2022/11/17 15:33:56;;;;;;;;;0.00;0.00;;;;;;;;5067444;28;9625;-78
2022/11/17 15:36:25;;;;;;;;;0.00;0.00;;;;;;;;5069081;28;8844;-79
2022/11/17 15:38:53;;;;;;;;;0.00;0.00;;;;;;;;5092863;28;8843;-78
2022/11/17 15:41:21;;;;;;;;;1.50;0.00;;;;;;;;5071220;28;8816;-78
2022/11/17 15:43:49;;;;;;;;;0.00;0.00;;;;;;;;5087619;28;8881;-77
2022/11/17 15:46:18;;;;;;;;;0.00;0.00;;;;;;;;5087911;28;8885;-78
2022/11/17 15:48:48;;;;;;;;;1.00;1.00;;;;;;;;5087273;28;8842;-78
2022/11/17 15:51:18;;;;;;;;;0.75;0.00;;;;;;;;5090283;28;8920;-77
2022/11/17 15:53:47;;;;;;;;;0.25;0.00;;;;;;;;5091070;28;8888;-78
2022/11/17 15:56:17;;;;;;;;;0.00;0.00;;;;;;;;5083780;28;8834;-76
2022/11/17 15:58:46;;;;;;;;;0.00;0.00;;;;;;;;5066996;28;8838;-77